Airfield :
LOGIN :

Register | Disclaimer

   EN    FR    IT 

 










Legend :    VFR   Marginal VFR   IFR   Intensive IFR   Very Intensive IFR
Visi :
Ceiling :
>= 8 km
>= 3000ft
5 to 8 km
1000 to 3000 ft
1500m to 5 km
500 to 1000 ft
800 to 1500m
200 to 500 ft
< 800m
< 200 ft
Symbols :   Thunderstorms  Fog  Heavy snow  Heavy precipitations  Wind > 20 kt
SIGMETs :     Misc.  Thunderstorms  Icing  Turbulence  Mountain Waves  Volcanic Ashes






- Airport Elevation : 12 ft
- IATA code : BCN


LEBL - Barcelone

CURRENT METAR :
  • 031930Z 19005KT 9999 FEW025 BKN042 25/18 Q1012 NOSIG

EXPIRED METARs :
  • 031900Z 18006KT 140V210 9999 FEW025 SCT035 25/18 Q1012 NOSIG
  • 031830Z 17006KT 130V210 9999 FEW025 26/17 Q1012 NOSIG
  • 031800Z 16007KT 130V200 9999 FEW025 26/17 Q1012 NOSIG
  • 031730Z 16007KT 120V190 9999 FEW025 26/18 Q1012 NOSIG
  • 031700Z 16008KT 130V200 9999 FEW025 26/18 Q1012 NOSIG

TAF COR TAF LEBL
Valid from the 03 at 18:00 until the 04 at 18:00 UTC


031730Z 0318/0418 16006KT 9999 FEW020 TX27/0412Z TN22/0406Z
TEMPO 0402/0408 3000 SHRA FEW030TCU
PROB40
TEMPO 0402/0404 20010KT
BECMG 0408/0410 17010KT



MET'MAP, your aeronautical weather chart ! - Copyright ORBIFLY December 2007 - Disclaimer

ORBIFLY MET'MAP TEAM :

Programming & Development : Alexandra Zaïnal
Concept & original design : Baudouin d'Aumeries
Assistance for programming : Marc-Olivier Méhu
Technical & hardware support : Manuel Goepfert

Contact : metmap@orbifly.com




SOURCES & CREDITS :

   NOAA